createdAt,value
2024-03-05T00:00:12.295Z,80.87
2024-03-05T00:02:44.479Z,80.46
2024-03-05T00:05:15.227Z,80.81
2024-03-05T00:07:44.466Z,81.34
2024-03-05T00:10:14.115Z,81.59
2024-03-05T00:12:42.990Z,81.33
2024-03-05T00:15:13.261Z,81.87
2024-03-05T00:17:41.548Z,81.94
2024-03-05T00:20:19.217Z,81.46
2024-03-05T00:22:48.543Z,81.95
2024-03-05T00:25:17.361Z,81.82
2024-03-05T00:27:46.710Z,82.27
2024-03-05T00:30:17.254Z,82.43
2024-03-05T00:32:46.280Z,82.10
2024-03-05T00:35:15.203Z,82.14
2024-03-05T00:37:43.610Z,82.56
2024-03-05T00:40:12.708Z,82.29
2024-03-05T00:42:41.175Z,82.32
2024-03-05T00:45:11.862Z,82.33
2024-03-05T00:47:41.481Z,82.38
2024-03-05T00:50:14.220Z,82.53
2024-03-05T00:52:42.580Z,82.70
2024-03-05T00:55:10.968Z,83.03
2024-03-05T00:57:39.833Z,83.36
2024-03-05T01:00:09.578Z,84.45
2024-03-05T01:02:37.895Z,85.05
2024-03-05T01:05:10.978Z,85.70
2024-03-05T01:07:39.598Z,86.20
2024-03-05T01:10:09.245Z,86.76
2024-03-05T01:12:38.017Z,86.97
2024-03-05T01:15:07.173Z,86.99
2024-03-05T01:17:35.461Z,87.09
2024-03-05T01:20:04.672Z,87.50
2024-03-05T01:22:34.575Z,87.65
2024-03-05T01:25:04.081Z,88.08
2024-03-05T01:27:32.374Z,88.44
2024-03-05T01:30:01.214Z,88.78
2024-03-05T01:32:30.454Z,89.06
2024-03-05T01:34:58.705Z,89.36
2024-03-05T01:37:27.492Z,89.61
2024-03-05T01:39:57.217Z,90.06
2024-03-05T01:42:25.446Z,90.58
2024-03-05T01:44:54.040Z,90.82
2024-03-05T01:47:22.441Z,91.30
2024-03-05T01:49:50.988Z,91.86
2024-03-05T01:52:19.730Z,92.23
2024-03-05T01:54:48.606Z,92.54
2024-03-05T01:57:20.481Z,92.99
2024-03-05T01:59:48.806Z,93.45
2024-03-05T02:02:17.485Z,93.91
2024-03-05T02:04:47.154Z,94.41
2024-03-05T02:07:15.632Z,94.63
2024-03-05T02:09:43.913Z,95.23
2024-03-05T02:12:12.165Z,95.59
2024-03-05T02:14:41.885Z,95.93
2024-03-05T02:17:11.351Z,96.42
2024-03-05T02:19:47.089Z,96.95
2024-03-05T02:22:16.850Z,97.05
2024-03-05T02:24:45.529Z,97.21
2024-03-05T02:27:20.302Z,97.43
2024-03-05T02:29:53.942Z,97.92
2024-03-05T02:32:24.398Z,98.40
2024-03-05T02:34:55.367Z,98.73
2024-03-05T02:37:25.122Z,98.75
2024-03-05T02:39:53.795Z,99.22
2024-03-05T02:42:22.074Z,99.51
2024-03-05T02:44:50.279Z,99.62
2024-03-05T02:47:18.546Z,99.76
2024-03-05T02:49:46.915Z,100.00
2024-03-05T02:52:15.978Z,100.00
2024-03-05T02:54:46.669Z,100.00
2024-03-05T02:57:15.060Z,100.00
2024-03-05T02:59:43.462Z,100.00
2024-03-05T03:02:11.661Z,100.00
2024-03-05T03:04:40.346Z,100.00
2024-03-05T03:07:08.624Z,100.00
2024-03-05T03:09:36.817Z,100.00
2024-03-05T03:12:07.239Z,100.00
2024-03-05T03:14:35.521Z,100.00
2024-03-05T03:17:03.784Z,100.00
2024-03-05T03:19:33.084Z,100.00
2024-03-05T03:22:01.789Z,100.00
2024-03-05T03:24:30.001Z,100.00
2024-03-05T03:26:58.200Z,100.00
2024-03-05T03:29:28.018Z,100.00
2024-03-05T03:31:57.377Z,100.00
2024-03-05T03:34:25.792Z,100.00
2024-03-05T03:36:55.218Z,100.00
2024-03-05T03:39:25.892Z,100.00
2024-03-05T03:41:56.050Z,100.00
2024-03-05T03:44:24.600Z,100.00
2024-03-05T03:46:54.582Z,100.00
2024-03-05T03:49:25.898Z,100.00
2024-03-05T03:51:55.295Z,100.00
2024-03-05T03:54:24.043Z,100.00
2024-03-05T03:56:52.604Z,100.00
2024-03-05T03:59:21.354Z,100.00
2024-03-05T04:01:50.935Z,100.00
2024-03-05T04:04:20.771Z,100.00
2024-03-05T04:06:49.842Z,100.00
2024-03-05T04:09:18.160Z,100.00
2024-03-05T04:11:47.445Z,100.00
2024-03-05T04:14:16.279Z,100.00
2024-03-05T04:16:44.691Z,100.00
2024-03-05T04:19:13.154Z,100.00
2024-03-05T04:21:43.331Z,100.00
2024-03-05T04:24:14.515Z,100.00
2024-03-05T04:26:43.450Z,100.00
2024-03-05T04:29:17.810Z,100.00
2024-03-05T04:31:56.223Z,100.00
2024-03-05T04:34:24.680Z,100.00
2024-03-05T04:36:56.375Z,100.00
2024-03-05T04:39:26.340Z,100.00
2024-03-05T04:41:54.572Z,100.00
2024-03-05T04:44:22.844Z,100.00
2024-03-05T04:46:51.098Z,100.00
2024-03-05T04:49:19.404Z,100.00
2024-03-05T04:51:47.798Z,100.00
2024-03-05T04:54:17.333Z,100.00
2024-03-05T04:56:45.640Z,100.00
2024-03-05T04:59:13.861Z,100.00
2024-03-05T05:01:42.090Z,100.00
2024-03-05T05:04:10.290Z,100.00
2024-03-05T05:06:38.488Z,100.00
2024-03-05T05:09:07.972Z,100.00
2024-03-05T05:11:38.022Z,100.00
2024-03-05T05:14:06.270Z,100.00
2024-03-05T05:16:35.979Z,100.00
2024-03-05T05:19:06.002Z,100.00
2024-03-05T05:21:35.139Z,100.00
2024-03-05T05:24:03.335Z,100.00
2024-03-05T05:26:31.556Z,100.00
2024-03-05T05:29:01.938Z,100.00
2024-03-05T05:31:30.956Z,100.00
2024-03-05T05:34:00.170Z,100.00
2024-03-05T05:36:28.481Z,100.00
2024-03-05T05:38:56.713Z,100.00
2024-03-05T05:41:25.722Z,100.00
2024-03-05T05:43:54.065Z,100.00
2024-03-05T05:46:24.967Z,100.00
2024-03-05T05:48:53.809Z,100.00
2024-03-05T05:51:23.512Z,100.00
2024-03-05T05:53:54.991Z,100.00
2024-03-05T05:56:23.300Z,100.00
2024-03-05T05:58:51.804Z,100.00
2024-03-05T06:01:20.266Z,100.00
2024-03-05T06:03:50.295Z,100.00
2024-03-05T06:06:20.950Z,100.00
2024-03-05T06:08:49.658Z,100.00
2024-03-05T06:11:18.145Z,100.00
2024-03-05T06:13:47.551Z,100.00
2024-03-05T06:16:17.582Z,100.00
2024-03-05T06:18:45.904Z,100.00
2024-03-05T06:21:15.561Z,100.00
2024-03-05T06:23:43.784Z,100.00
2024-03-05T06:26:12.141Z,100.00
2024-03-05T06:28:40.403Z,100.00
2024-03-05T06:31:10.651Z,100.00
2024-03-05T06:33:38.910Z,100.00
2024-03-05T06:36:08.807Z,100.00
2024-03-05T06:38:38.977Z,100.00
2024-03-05T06:41:07.349Z,100.00
2024-03-05T06:43:37.852Z,100.00
2024-03-05T06:46:10.759Z,100.00
2024-03-05T06:48:43.157Z,100.00
2024-03-05T06:51:27.540Z,100.00
2024-03-05T06:54:14.861Z,100.00
2024-03-05T06:56:43.157Z,100.00
2024-03-05T06:59:11.956Z,100.00
2024-03-05T07:01:40.683Z,100.00
2024-03-05T07:04:09.902Z,100.00
2024-03-05T07:06:38.121Z,100.00
2024-03-05T07:09:07.695Z,100.00
2024-03-05T07:11:36.074Z,100.00
2024-03-05T07:14:04.537Z,100.00
2024-03-05T07:16:34.202Z,100.00
2024-03-05T07:19:04.499Z,100.00
2024-03-05T07:21:32.747Z,100.00
2024-03-05T07:24:01.249Z,100.00
2024-03-05T07:26:32.996Z,100.00
2024-03-05T07:29:01.353Z,100.00
2024-03-05T07:31:29.997Z,100.00
2024-03-05T07:33:59.427Z,100.00
2024-03-05T07:36:27.906Z,100.00
2024-03-05T07:38:56.285Z,100.00
2024-03-05T07:41:30.435Z,100.00
2024-03-05T07:44:05.508Z,100.00
2024-03-05T07:46:34.908Z,100.00
2024-03-05T07:49:03.605Z,100.00
2024-03-05T07:51:40.896Z,100.00
2024-03-05T07:54:14.679Z,100.00
2024-03-05T07:56:44.159Z,100.00
2024-03-05T07:59:14.677Z,100.00
2024-03-05T08:01:43.109Z,100.00
2024-03-05T08:04:11.404Z,100.00
2024-03-05T08:06:39.910Z,99.79
2024-03-05T08:09:09.088Z,99.37
2024-03-05T08:11:37.447Z,99.12
2024-03-05T08:14:08.464Z,98.91
2024-03-05T08:16:39.841Z,97.74
2024-03-05T08:19:08.908Z,96.77
2024-03-05T08:21:37.195Z,96.17
2024-03-05T08:24:07.626Z,96.54
2024-03-05T08:26:35.922Z,96.10
2024-03-05T08:29:05.140Z,96.48
2024-03-05T08:31:33.700Z,96.17
2024-03-05T08:34:05.482Z,96.32
2024-03-05T08:36:38.345Z,95.65
2024-03-05T08:39:18.362Z,95.04
2024-03-05T08:41:48.217Z,94.40
2024-03-05T08:44:17.722Z,93.15
2024-03-05T08:46:46.066Z,93.19
2024-03-05T08:49:15.737Z,92.73
2024-03-05T08:51:46.479Z,92.21
2024-03-05T08:54:17.803Z,90.96
2024-03-05T08:56:46.567Z,91.05
2024-03-05T08:59:15.002Z,90.40
2024-03-05T09:01:43.358Z,92.20
2024-03-05T09:04:11.663Z,90.57
2024-03-05T09:06:41.795Z,91.07
2024-03-05T09:09:12.253Z,90.61
2024-03-05T09:11:41.016Z,90.73
2024-03-05T09:14:09.998Z,90.51
2024-03-05T09:16:39.320Z,90.58
2024-03-05T09:19:07.980Z,89.74
2024-03-05T09:21:37.264Z,89.47
2024-03-05T09:24:07.983Z,88.06
2024-03-05T09:26:36.509Z,87.20
2024-03-05T09:29:04.945Z,85.42
2024-03-05T09:31:34.081Z,85.50
2024-03-05T09:34:02.372Z,84.05
2024-03-05T09:36:31.262Z,83.99
2024-03-05T09:39:01.224Z,83.61
2024-03-05T09:41:35.448Z,82.48
2024-03-05T09:44:06.938Z,83.16
2024-03-05T09:46:36.664Z,83.45
2024-03-05T09:49:14.923Z,83.59
2024-03-05T09:51:47.989Z,82.75
2024-03-05T09:54:16.346Z,83.32
2024-03-05T09:56:47.048Z,82.46
2024-03-05T09:59:17.644Z,81.59
2024-03-05T10:01:47.695Z,81.80
2024-03-05T10:04:18.028Z,80.91
2024-03-05T10:06:47.186Z,79.41
2024-03-05T10:09:15.597Z,80.64
2024-03-05T10:11:44.456Z,79.61
2024-03-05T10:14:14.143Z,79.63
2024-03-05T10:16:44.701Z,79.96
2024-03-05T10:19:14.572Z,81.21
2024-03-05T10:21:43.086Z,81.67
2024-03-05T10:24:12.395Z,80.03
2024-03-05T10:26:41.723Z,78.84
2024-03-05T10:29:11.622Z,79.08
2024-03-05T10:31:43.919Z,78.95
2024-03-05T10:34:12.722Z,79.46
2024-03-05T10:36:43.483Z,78.35
2024-03-05T10:39:14.063Z,76.88
2024-03-05T10:41:47.629Z,75.58
2024-03-05T10:44:20.800Z,73.05
2024-03-05T10:46:52.512Z,72.38
2024-03-05T10:49:23.054Z,72.66
2024-03-05T10:51:54.214Z,72.67
2024-03-05T10:54:23.328Z,72.97
2024-03-05T10:56:53.313Z,73.38
2024-03-05T10:59:35.302Z,73.80
2024-03-05T11:02:10.327Z,75.11
2024-03-05T11:04:38.696Z,74.85
2024-03-05T11:07:07.728Z,74.05
2024-03-05T11:09:37.773Z,73.70
2024-03-05T11:12:10.640Z,72.40
2024-03-05T11:14:39.799Z,73.14
2024-03-05T11:17:12.923Z,72.98
2024-03-05T11:19:44.596Z,72.81
2024-03-05T11:22:24.421Z,72.81
2024-03-05T11:24:58.243Z,72.96
2024-03-05T11:27:27.260Z,75.07
2024-03-05T11:30:07.889Z,74.91
2024-03-05T11:32:39.288Z,74.12
2024-03-05T11:35:09.929Z,74.32
2024-03-05T11:37:52.590Z,72.78
2024-03-05T11:40:23.741Z,71.18
2024-03-05T11:42:54.357Z,68.67
2024-03-05T11:45:45.080Z,69.53
2024-03-05T11:48:16.032Z,71.35
2024-03-05T11:50:44.479Z,70.58
2024-03-05T11:53:13.348Z,71.99
2024-03-05T11:55:41.843Z,72.12
2024-03-05T11:58:12.470Z,69.18
2024-03-05T12:00:40.868Z,69.09
2024-03-05T12:03:09.715Z,67.91
2024-03-05T12:05:44.225Z,68.54
2024-03-05T12:08:12.538Z,66.82
2024-03-05T12:10:41.779Z,65.82
2024-03-05T12:13:11.542Z,64.45
2024-03-05T12:15:40.707Z,66.49
2024-03-05T12:18:11.808Z,68.53
2024-03-05T12:20:43.019Z,69.60
2024-03-05T12:23:11.847Z,70.66
2024-03-05T12:25:40.364Z,71.29
2024-03-05T12:28:08.700Z,70.67
2024-03-05T12:30:37.532Z,70.39
2024-03-05T12:33:07.142Z,70.26
2024-03-05T12:35:35.585Z,70.27
2024-03-05T12:38:07.166Z,70.13
2024-03-05T12:40:35.950Z,69.58
2024-03-05T12:43:09.716Z,69.03
2024-03-05T12:45:39.309Z,69.59
2024-03-05T12:48:10.329Z,68.02
2024-03-05T12:50:40.485Z,66.83
2024-03-05T12:53:10.916Z,65.96
2024-03-05T12:55:39.347Z,64.96
2024-03-05T12:58:08.546Z,63.45
2024-03-05T13:00:37.364Z,62.95
2024-03-05T13:03:06.535Z,62.65
2024-03-05T13:05:35.937Z,62.06
2024-03-05T13:08:05.602Z,62.68
2024-03-05T13:10:35.720Z,64.11
2024-03-05T13:13:04.392Z,66.01
2024-03-05T13:15:32.590Z,68.28
2024-03-05T13:18:00.954Z,69.04
2024-03-05T13:20:31.392Z,70.15
2024-03-05T13:23:00.775Z,71.45
2024-03-05T13:25:31.539Z,72.27
2024-03-05T13:28:03.177Z,72.96
2024-03-05T13:30:31.626Z,73.43
2024-03-05T13:33:03.668Z,73.55
2024-03-05T13:35:32.956Z,73.01
2024-03-05T13:38:01.571Z,73.54
2024-03-05T13:40:33.776Z,72.23
2024-03-05T13:43:03.929Z,72.70
2024-03-05T13:45:32.251Z,72.61
2024-03-05T13:48:01.149Z,71.48
2024-03-05T13:50:35.048Z,72.16
2024-03-05T13:53:03.384Z,71.46
2024-03-05T13:55:31.662Z,70.87
2024-03-05T13:58:00.715Z,70.84
2024-03-05T14:00:32.822Z,71.04
2024-03-05T14:03:03.159Z,70.52
2024-03-05T14:05:33.146Z,70.93
2024-03-05T14:08:02.006Z,70.96
2024-03-05T14:10:30.768Z,71.61
2024-03-05T14:13:00.947Z,70.97
2024-03-05T14:15:30.542Z,70.21
2024-03-05T14:17:59.237Z,70.59
2024-03-05T14:20:29.704Z,70.62
2024-03-05T14:23:00.651Z,70.37
2024-03-05T14:25:30.259Z,70.41
2024-03-05T14:27:58.625Z,70.67
2024-03-05T14:30:27.342Z,71.24
2024-03-05T14:33:00.078Z,72.06
2024-03-05T14:35:28.613Z,72.80
2024-03-05T14:37:57.767Z,72.90
2024-03-05T14:40:27.339Z,73.08
2024-03-05T14:42:55.935Z,73.78
2024-03-05T14:45:24.221Z,74.19
2024-03-05T14:47:52.497Z,74.53
2024-03-05T14:50:23.103Z,74.69
2024-03-05T14:52:53.720Z,75.24
2024-03-05T14:55:23.715Z,75.42
2024-03-05T14:57:51.968Z,75.49
2024-03-05T15:00:23.226Z,75.39
2024-03-05T15:02:52.603Z,75.22
2024-03-05T15:05:23.561Z,75.73
2024-03-05T15:07:54.067Z,75.29
2024-03-05T15:10:23.085Z,75.88
2024-03-05T15:12:53.116Z,75.86
2024-03-05T15:15:22.098Z,75.86
2024-03-05T15:17:50.512Z,75.80
2024-03-05T15:20:20.235Z,76.06
2024-03-05T15:22:51.191Z,76.10
2024-03-05T15:25:21.584Z,76.64
2024-03-05T15:28:01.108Z,76.75
2024-03-05T15:30:34.770Z,77.41
2024-03-05T15:33:05.546Z,77.68
2024-03-05T15:35:34.171Z,77.75
2024-03-05T15:38:06.221Z,77.84
2024-03-05T15:40:35.445Z,77.94
2024-03-05T15:43:07.308Z,78.24
2024-03-05T15:45:39.602Z,78.31
2024-03-05T15:48:11.304Z,78.65
2024-03-05T15:50:42.455Z,78.65
2024-03-05T15:53:12.898Z,78.97
2024-03-05T15:55:45.663Z,79.07
2024-03-05T15:58:40.853Z,79.28
2024-03-05T16:01:08.226Z,79.14
2024-03-05T16:03:40.303Z,79.36
2024-03-05T16:06:18.565Z,79.58
2024-03-05T16:08:49.129Z,79.33
2024-03-05T16:11:17.773Z,79.69
2024-03-05T16:13:46.966Z,80.01
2024-03-05T16:16:15.804Z,79.73
2024-03-05T16:18:45.609Z,79.54
2024-03-05T16:21:14.246Z,79.25
2024-03-05T16:23:42.543Z,79.79
2024-03-05T16:26:12.083Z,80.02
2024-03-05T16:28:41.286Z,80.09
2024-03-05T16:31:12.369Z,80.59
2024-03-05T16:33:43.030Z,81.03
2024-03-05T16:36:11.314Z,81.00
2024-03-05T16:38:40.720Z,81.20
2024-03-05T16:41:09.009Z,81.74
2024-03-05T16:43:39.383Z,82.21
2024-03-05T16:46:09.530Z,82.27
2024-03-05T16:48:38.504Z,82.80
2024-03-05T16:51:06.733Z,82.96
2024-03-05T16:53:37.370Z,82.80
2024-03-05T16:56:06.321Z,82.75
2024-03-05T16:58:38.887Z,83.24
2024-03-05T17:01:13.636Z,83.32
2024-03-05T17:03:46.090Z,83.72
2024-03-05T17:06:16.089Z,83.94
2024-03-05T17:08:44.749Z,83.78
2024-03-05T17:11:16.660Z,83.47
2024-03-05T17:13:47.508Z,83.27
2024-03-05T17:16:18.521Z,83.80
2024-03-05T17:18:46.925Z,83.89
2024-03-05T17:21:15.177Z,84.02
2024-03-05T17:23:48.110Z,83.99
2024-03-05T17:26:17.240Z,84.52
2024-03-05T17:28:46.116Z,84.74
2024-03-05T17:31:14.378Z,84.83
2024-03-05T17:33:44.023Z,84.92
2024-03-05T17:36:12.639Z,85.15
2024-03-05T17:38:41.864Z,85.48
2024-03-05T17:41:10.117Z,85.89
2024-03-05T17:43:38.618Z,86.16
2024-03-05T17:46:07.441Z,86.55
2024-03-05T17:48:35.991Z,86.86
2024-03-05T17:51:11.089Z,87.14
2024-03-05T17:53:39.591Z,86.93
2024-03-05T17:56:12.372Z,87.27
2024-03-05T17:58:41.224Z,86.86
2024-03-05T18:01:12.582Z,87.60
2024-03-05T18:03:41.661Z,89.23
2024-03-05T18:06:11.954Z,90.30
2024-03-05T18:08:40.718Z,90.56
2024-03-05T18:11:12.345Z,90.34
2024-03-05T18:13:44.087Z,90.46
2024-03-05T18:16:12.766Z,91.04
2024-03-05T18:18:41.055Z,90.80
2024-03-05T18:21:10.825Z,90.57
2024-03-05T18:23:40.569Z,90.65
2024-03-05T18:26:08.840Z,90.28
2024-03-05T18:28:37.077Z,90.20
2024-03-05T18:31:08.268Z,90.38
2024-03-05T18:33:36.513Z,91.16
2024-03-05T18:36:04.984Z,91.69
2024-03-05T18:38:34.694Z,92.16
2024-03-05T18:41:03.502Z,92.64
2024-03-05T18:43:32.289Z,92.35
2024-03-05T18:46:01.586Z,92.14
2024-03-05T18:48:30.517Z,91.23
2024-03-05T18:50:59.333Z,91.70
2024-03-05T18:53:36.337Z,91.38
2024-03-05T18:56:14.089Z,91.39
2024-03-05T18:58:44.238Z,91.05
2024-03-05T19:01:15.420Z,91.10
2024-03-05T19:03:45.558Z,91.68
2024-03-05T19:06:13.945Z,91.75
2024-03-05T19:08:42.166Z,92.27
2024-03-05T19:11:12.505Z,92.27
2024-03-05T19:13:43.097Z,92.22
2024-03-05T19:16:11.495Z,92.02
2024-03-05T19:18:39.727Z,92.27
2024-03-05T19:21:09.351Z,92.56
2024-03-05T19:23:38.478Z,92.72
2024-03-05T19:26:06.832Z,93.27
2024-03-05T19:28:37.846Z,93.80
2024-03-05T19:31:10.699Z,94.04
2024-03-05T19:33:41.340Z,94.63
2024-03-05T19:36:10.966Z,94.29
2024-03-05T19:38:41.547Z,94.67
2024-03-05T19:41:11.240Z,94.97
2024-03-05T19:43:41.061Z,94.93
2024-03-05T19:46:10.947Z,94.91
2024-03-05T19:48:39.304Z,94.35
2024-03-05T19:51:08.513Z,93.93
2024-03-05T19:53:37.103Z,94.66
2024-03-05T19:56:06.084Z,96.27
2024-03-05T19:58:35.087Z,97.84
2024-03-05T20:01:03.478Z,98.66
2024-03-05T20:03:33.148Z,99.09
2024-03-05T20:06:01.734Z,99.03
2024-03-05T20:08:34.442Z,99.18
2024-03-05T20:11:03.127Z,98.00
2024-03-05T20:13:31.479Z,98.92
2024-03-05T20:15:59.706Z,99.47
2024-03-05T20:18:29.218Z,99.49
2024-03-05T20:20:59.013Z,99.73
2024-03-05T20:23:29.714Z,100.00
2024-03-05T20:25:57.945Z,100.00
2024-03-05T20:28:26.204Z,100.00
2024-03-05T20:30:56.175Z,100.00
2024-03-05T20:33:24.934Z,100.00
2024-03-05T20:35:53.177Z,100.00
2024-03-05T20:38:25.515Z,100.00
2024-03-05T20:40:53.908Z,100.00
2024-03-05T20:43:22.158Z,100.00
2024-03-05T20:45:51.458Z,100.00
2024-03-05T20:48:20.338Z,100.00
2024-03-05T20:50:50.753Z,100.00
2024-03-05T20:53:22.062Z,100.00
2024-03-05T20:55:50.436Z,100.00
2024-03-05T20:58:18.682Z,100.00
2024-03-05T21:00:46.969Z,100.00
2024-03-05T21:03:19.221Z,100.00
2024-03-05T21:05:48.156Z,100.00
2024-03-05T21:08:16.638Z,100.00
2024-03-05T21:10:46.998Z,100.00
2024-03-05T21:13:15.329Z,100.00
2024-03-05T21:15:43.540Z,100.00
2024-03-05T21:18:12.127Z,100.00
2024-03-05T21:20:40.886Z,100.00
2024-03-05T21:23:09.207Z,100.00
2024-03-05T21:25:50.084Z,100.00
2024-03-05T21:28:27.092Z,100.00
2024-03-05T21:30:56.010Z,100.00
2024-03-05T21:33:24.307Z,100.00
2024-03-05T21:35:53.262Z,100.00
2024-03-05T21:38:21.526Z,100.00
2024-03-05T21:40:49.770Z,100.00
2024-03-05T21:43:18.546Z,100.00
2024-03-05T21:45:48.299Z,100.00
2024-03-05T21:48:16.878Z,100.00
2024-03-05T21:50:45.128Z,100.00
2024-03-05T21:53:13.564Z,100.00
2024-03-05T21:55:42.323Z,100.00
2024-03-05T21:58:10.610Z,100.00
2024-03-05T22:00:38.869Z,100.00
2024-03-05T22:03:09.124Z,100.00
2024-03-05T22:05:37.414Z,100.00
2024-03-05T22:08:06.634Z,100.00
2024-03-05T22:10:35.000Z,100.00
2024-03-05T22:13:05.371Z,100.00
2024-03-05T22:15:33.612Z,100.00
2024-03-05T22:18:01.921Z,100.00
2024-03-05T22:20:31.522Z,100.00
2024-03-05T22:23:00.571Z,100.00
2024-03-05T22:25:28.957Z,100.00
2024-03-05T22:27:57.196Z,100.00
2024-03-05T22:30:25.600Z,100.00
2024-03-05T22:32:53.971Z,100.00
2024-03-05T22:35:23.166Z,100.00
2024-03-05T22:37:55.641Z,100.00
2024-03-05T22:40:26.061Z,100.00
2024-03-05T22:42:54.249Z,100.00
2024-03-05T22:45:22.967Z,100.00
2024-03-05T22:47:51.315Z,100.00
2024-03-05T22:50:19.717Z,100.00
2024-03-05T22:52:47.969Z,100.00
2024-03-05T22:55:17.598Z,100.00
2024-03-05T22:57:45.859Z,100.00
2024-03-05T23:00:23.668Z,100.00
2024-03-05T23:02:53.471Z,100.00
2024-03-05T23:05:22.246Z,100.00
2024-03-05T23:07:52.165Z,100.00
2024-03-05T23:10:22.385Z,100.00
2024-03-05T23:12:50.759Z,100.00
2024-03-05T23:15:19.797Z,100.00
2024-03-05T23:17:48.107Z,100.00
2024-03-05T23:20:18.589Z,100.00
2024-03-05T23:22:48.501Z,100.00
2024-03-05T23:25:17.395Z,100.00
2024-03-05T23:27:47.949Z,100.00
2024-03-05T23:30:17.550Z,100.00
2024-03-05T23:32:46.437Z,100.00
2024-03-05T23:35:15.000Z,100.00
2024-03-05T23:37:43.384Z,100.00
2024-03-05T23:40:12.368Z,100.00
2024-03-05T23:42:40.894Z,100.00
2024-03-05T23:45:11.451Z,100.00
2024-03-05T23:47:39.697Z,100.00
2024-03-05T23:50:10.458Z,100.00
2024-03-05T23:52:39.121Z,100.00
2024-03-05T23:55:08.242Z,100.00
2024-03-05T23:57:36.751Z,100.00
